Time;durP1;ratioP1;P1;durP2;ratioP2;P2;SDS_P1;SDS_P2;PMS_P1;PMS_P2;Temp;Humidity;BMP_temperature;BMP_pressure;BME280_temperature;BME280_humidity;BME280_pressure;Samples;Min_cycle;Max_cycle;Signal;HPM_P1;HPM_P2
2023/03/02 00:01:33;;;;;;;32.30;16.70;;;;;;;;;;5050716;28;20098;-54
2023/03/02 00:04:02;;;;;;;36.05;16.63;;;;;;;;;;5051043;28;20045;-50
2023/03/02 00:06:31;;;;;;;33.25;16.80;;;;;;;;;;5050986;28;20099;-55
2023/03/02 00:08:59;;;;;;;35.17;17.27;;;;;;;;;;5050952;28;20048;-55
2023/03/02 00:11:26;;;;;;;39.45;17.23;;;;;;;;;;5053760;28;20052;-53
2023/03/02 00:13:54;;;;;;;33.35;16.50;;;;;;;;;;5055444;28;20049;-52
2023/03/02 00:16:20;;;;;;;38.60;17.00;;;;;;;;;;5054770;28;20102;-56
2023/03/02 00:18:47;;;;;;;33.47;18.00;;;;;;;;;;5054767;28;20053;-51
2023/03/02 00:21:14;;;;;;;34.97;16.23;;;;;;;;;;5053564;28;20041;-51
2023/03/02 00:23:42;;;;;;;35.88;16.92;;;;;;;;;;5054641;28;20068;-52
2023/03/02 00:26:09;;;;;;;37.60;18.00;;;;;;;;;;5054372;28;20049;-53
2023/03/02 00:28:36;;;;;;;37.95;18.05;;;;;;;;;;5055011;28;20449;-56
2023/03/02 00:31:05;;;;;;;36.38;17.48;;;;;;;;;;5053507;28;20056;-50
2023/03/02 00:33:32;;;;;;;32.42;16.55;;;;;;;;;;5055006;28;20049;-52
2023/03/02 00:35:59;;;;;;;35.72;16.83;;;;;;;;;;5054410;28;20052;-52
2023/03/02 00:38:26;;;;;;;36.70;16.65;;;;;;;;;;5054806;28;20489;-55
2023/03/02 00:40:55;;;;;;;33.63;17.15;;;;;;;;;;5053486;28;20076;-54
2023/03/02 00:43:26;;;;;;;36.50;18.15;;;;;;;;;;5054519;28;20127;-54
2023/03/02 00:45:53;;;;;;;36.63;18.02;;;;;;;;;;5054195;28;20052;-52
2023/03/02 00:48:20;;;;;;;39.35;17.75;;;;;;;;;;5054180;28;20548;-53
2023/03/02 00:50:47;;;;;;;36.97;17.13;;;;;;;;;;5053870;28;20394;-56
2023/03/02 00:53:14;;;;;;;35.83;17.60;;;;;;;;;;5053619;28;20044;-54
2023/03/02 00:55:54;;;;;;;37.47;17.42;;;;;;;;;;5054095;28;20448;-52
2023/03/02 00:58:21;;;;;;;35.35;18.08;;;;;;;;;;5054145;28;20095;-56
2023/03/02 01:00:49;;;;;;;34.97;17.52;;;;;;;;;;5053580;28;20107;-55
2023/03/02 01:03:15;;;;;;;39.28;18.00;;;;;;;;;;5047608;28;20485;-54
2023/03/02 01:05:42;;;;;;;32.78;16.83;;;;;;;;;;5038133;28;20497;-55
2023/03/02 01:08:09;;;;;;;39.67;18.20;;;;;;;;;;5054047;28;20413;-51
2023/03/02 01:10:36;;;;;;;36.15;17.33;;;;;;;;;;5053805;28;20090;-54
2023/03/02 01:13:04;;;;;;;36.35;17.50;;;;;;;;;;5053826;28;20088;-50
2023/03/02 01:15:31;;;;;;;41.75;18.85;;;;;;;;;;5053988;28;20053;-52
2023/03/02 01:17:59;;;;;;;37.38;18.20;;;;;;;;;;5054007;28;20473;-52
2023/03/02 01:20:26;;;;;;;38.00;17.75;;;;;;;;;;5053508;28;20049;-57
2023/03/02 01:22:53;;;;;;;40.10;18.10;;;;;;;;;;5052268;28;20095;-55
2023/03/02 01:25:20;;;;;;;36.50;18.63;;;;;;;;;;5053566;28;20087;-53
2023/03/02 01:27:47;;;;;;;39.72;18.45;;;;;;;;;;5053617;28;20099;-56
2023/03/02 01:30:15;;;;;;;41.42;18.15;;;;;;;;;;5053246;28;20071;-56
2023/03/02 01:32:42;;;;;;;39.38;18.63;;;;;;;;;;5052881;28;20049;-53
2023/03/02 01:35:09;;;;;;;39.42;19.13;;;;;;;;;;5053230;28;20053;-55
2023/03/02 01:37:36;;;;;;;33.88;17.63;;;;;;;;;;5053340;28;20049;-54
2023/03/02 01:40:05;;;;;;;36.90;17.83;;;;;;;;;;5053167;28;20053;-54
2023/03/02 01:42:34;;;;;;;38.63;19.00;;;;;;;;;;5052292;28;20064;-53
2023/03/02 01:45:01;;;;;;;37.92;18.10;;;;;;;;;;5053283;28;20127;-51
2023/03/02 01:47:35;;;;;;;33.55;17.45;;;;;;;;;;5053309;28;20048;-63
2023/03/02 01:50:06;;;;;;;38.10;18.20;;;;;;;;;;5053252;28;20045;-56
2023/03/02 01:52:37;;;;;;;41.97;19.83;;;;;;;;;;5052231;28;20087;-53
2023/03/02 01:55:06;;;;;;;32.85;16.77;;;;;;;;;;5053210;28;20501;-52
2023/03/02 01:57:42;;;;;;;41.65;19.27;;;;;;;;;;5052983;28;20461;-51
2023/03/02 02:00:14;;;;;;;36.13;17.77;;;;;;;;;;5053116;28;20056;-53
2023/03/02 02:02:43;;;;;;;38.20;18.42;;;;;;;;;;5052408;28;20052;-51
2023/03/02 02:05:11;;;;;;;35.38;17.58;;;;;;;;;;5052973;28;20099;-54
2023/03/02 02:07:39;;;;;;;38.05;19.13;;;;;;;;;;5052585;28;20106;-53
2023/03/02 02:10:07;;;;;;;38.85;19.20;;;;;;;;;;5052576;28;20045;-52
2023/03/02 02:12:33;;;;;;;36.90;17.58;;;;;;;;;;5051171;28;20063;-51
2023/03/02 02:15:01;;;;;;;41.58;18.08;;;;;;;;;;5052801;28;20191;-50
2023/03/02 02:17:29;;;;;;;35.03;18.45;;;;;;;;;;5052439;28;20063;-50
2023/03/02 02:20:09;;;;;;;41.28;19.13;;;;;;;;;;5052459;28;20055;-53
2023/03/02 02:22:49;;;;;;;35.45;18.40;;;;;;;;;;5052021;28;20486;-55
2023/03/02 02:25:25;;;;;;;38.73;19.77;;;;;;;;;;5052728;28;20459;-55
2023/03/02 02:27:54;;;;;;;39.17;17.73;;;;;;;;;;5052363;28;20090;-51
2023/03/02 02:30:22;;;;;;;40.00;19.85;;;;;;;;;;5052375;28;20555;-55
2023/03/02 02:32:50;;;;;;;40.85;18.42;;;;;;;;;;5051851;28;20494;-52
2023/03/02 02:35:21;;;;;;;39.53;18.83;;;;;;;;;;5052529;28;20399;-52
2023/03/02 02:37:51;;;;;;;39.92;19.02;;;;;;;;;;5052194;28;20045;-54
2023/03/02 02:40:21;;;;;;;45.08;18.80;;;;;;;;;;5052668;28;20053;-56
2023/03/02 02:42:51;;;;;;;40.05;18.73;;;;;;;;;;5051906;28;20122;-54
2023/03/02 02:45:22;;;;;;;37.72;19.15;;;;;;;;;;5052236;28;20065;-56
2023/03/02 02:47:49;;;;;;;37.15;18.00;;;;;;;;;;5059946;23;20436;-57
2023/03/02 02:50:22;;;;;;;36.42;18.52;;;;;;;;;;5051480;28;20041;-57
2023/03/02 02:52:55;;;;;;;41.00;17.80;;;;;;;;;;5052012;28;20401;-59
2023/03/02 02:55:24;;;;;;;38.20;18.77;;;;;;;;;;5052446;28;20726;-59
2023/03/02 02:57:53;;;;;;;32.83;18.25;;;;;;;;;;5052253;28;20053;-58
2023/03/02 03:00:23;;;;;;;35.17;18.23;;;;;;;;;;5051915;28;20391;-59
2023/03/02 03:02:55;;;;;;;35.17;17.90;;;;;;;;;;5051876;28;20041;-57
2023/03/02 03:05:22;;;;;;;41.88;19.20;;;;;;;;;;5052735;28;20092;-58
2023/03/02 03:07:49;;;;;;;37.95;19.60;;;;;;;;;;5052124;28;20056;-58
2023/03/02 03:10:21;;;;;;;37.60;18.67;;;;;;;;;;5051777;28;20044;-56
2023/03/02 03:12:49;;;;;;;41.13;18.83;;;;;;;;;;5052296;28;20056;-59
2023/03/02 03:15:16;;;;;;;41.22;19.30;;;;;;;;;;5033587;28;20058;-60
2023/03/02 03:17:53;;;;;;;37.30;18.10;;;;;;;;;;5032298;28;20552;-60
2023/03/02 03:20:22;;;;;;;35.50;17.92;;;;;;;;;;5032022;28;20049;-59
2023/03/02 03:22:49;;;;;;;38.95;18.02;;;;;;;;;;5046330;28;20052;-59
2023/03/02 03:25:15;;;;;;;36.13;19.40;;;;;;;;;;5052379;28;20575;-58
2023/03/02 03:27:43;;;;;;;37.25;19.17;;;;;;;;;;5051912;28;20049;-59
2023/03/02 03:30:11;;;;;;;40.13;19.45;;;;;;;;;;5051493;28;20053;-59
2023/03/02 03:32:38;;;;;;;35.85;17.73;;;;;;;;;;5051169;28;20049;-59
2023/03/02 03:35:10;;;;;;;36.50;18.73;;;;;;;;;;5052298;28;20059;-58
2023/03/02 03:37:37;;;;;;;38.90;19.25;;;;;;;;;;5052011;28;20148;-60
2023/03/02 03:40:05;;;;;;;36.47;19.15;;;;;;;;;;5052039;28;20056;-58
2023/03/02 03:42:32;;;;;;;39.53;18.95;;;;;;;;;;5051723;28;20103;-59
2023/03/02 03:44:59;;;;;;;40.28;19.38;;;;;;;;;;5052869;28;20103;-58
2023/03/02 03:47:26;;;;;;;36.33;18.05;;;;;;;;;;5055985;28;20409;-59
2023/03/02 03:49:53;;;;;;;39.22;19.00;;;;;;;;;;5055756;28;20049;-58
2023/03/02 03:52:29;;;;;;;40.60;19.05;;;;;;;;;;5055829;28;20459;-59
2023/03/02 03:54:56;;;;;;;45.47;20.42;;;;;;;;;;5055557;28;20049;-58
2023/03/02 03:57:23;;;;;;;39.22;18.55;;;;;;;;;;5055276;28;20049;-59
2023/03/02 03:59:50;;;;;;;39.53;18.15;;;;;;;;;;5055281;28;20048;-58
2023/03/02 04:02:17;;;;;;;40.05;19.33;;;;;;;;;;5055133;28;20041;-58
2023/03/02 04:04:44;;;;;;;38.53;18.55;;;;;;;;;;5055502;28;20053;-58
2023/03/02 04:07:11;;;;;;;37.72;18.38;;;;;;;;;;5055355;28;20053;-59
2023/03/02 04:09:39;;;;;;;36.00;18.77;;;;;;;;;;5054819;28;20053;-59
2023/03/02 04:12:08;;;;;;;38.92;18.52;;;;;;;;;;5055414;28;20048;-60
2023/03/02 04:14:35;;;;;;;40.90;18.95;;;;;;;;;;5055351;28;20049;-60
2023/03/02 04:17:04;;;;;;;37.05;18.48;;;;;;;;;;5055140;28;20049;-59
2023/03/02 04:19:31;;;;;;;34.17;17.65;;;;;;;;;;5054902;28;20061;-57
2023/03/02 04:21:58;;;;;;;46.67;20.75;;;;;;;;;;5055277;28;20099;-58
2023/03/02 04:24:25;;;;;;;39.03;18.17;;;;;;;;;;5055064;28;20469;-59
2023/03/02 04:26:53;;;;;;;39.13;20.90;;;;;;;;;;5055366;28;20103;-60
2023/03/02 04:29:20;;;;;;;42.55;19.27;;;;;;;;;;5054338;28;20409;-58
2023/03/02 04:31:47;;;;;;;42.08;20.15;;;;;;;;;;5053921;28;20452;-59
2023/03/02 04:34:14;;;;;;;44.20;21.00;;;;;;;;;;5034764;28;20052;-58
2023/03/02 04:36:41;;;;;;;44.08;20.52;;;;;;;;;;5034973;28;20511;-58
2023/03/02 04:39:08;;;;;;;41.42;18.98;;;;;;;;;;5034813;28;20067;-60
2023/03/02 04:41:35;;;;;;;42.15;20.48;;;;;;;;;;5034865;28;20056;-60
2023/03/02 04:44:04;;;;;;;43.05;20.17;;;;;;;;;;5034845;28;20509;-59
2023/03/02 04:46:33;;;;;;;39.42;17.98;;;;;;;;;;5034710;28;20559;-60
2023/03/02 04:49:00;;;;;;;42.95;19.60;;;;;;;;;;5034806;28;20155;-59
2023/03/02 04:51:30;;;;;;;40.85;19.60;;;;;;;;;;5034773;28;20064;-59
2023/03/02 04:53:58;;;;;;;;;;;;;;;;;;5035320;28;20491;-59
2023/03/02 04:56:25;;;;;;;39.45;19.67;;;;;;;;;;5034550;28;19983;-59
2023/03/02 04:58:52;;;;;;;40.33;19.73;;;;;;;;;;5034622;28;20119;-58
2023/03/02 05:01:21;;;;;;;39.55;19.23;;;;;;;;;;5034713;28;20054;-60
2023/03/02 05:03:48;;;;;;;43.47;19.27;;;;;;;;;;5052592;28;20495;-60
2023/03/02 05:06:15;;;;;;;43.13;21.67;;;;;;;;;;5054582;28;20441;-59
2023/03/02 05:08:43;;;;;;;43.78;20.70;;;;;;;;;;5054217;28;20549;-60
2023/03/02 05:11:20;;;;;;;38.25;18.85;;;;;;;;;;5054522;28;20052;-60
2023/03/02 05:13:47;;;;;;;42.63;19.85;;;;;;;;;;5053989;28;20053;-59
2023/03/02 05:16:14;;;;;;;42.03;20.40;;;;;;;;;;5054424;28;20045;-60
2023/03/02 05:18:42;;;;;;;40.08;20.00;;;;;;;;;;5054183;28;20057;-59
2023/03/02 05:21:09;;;;;;;37.05;19.10;;;;;;;;;;5054075;28;20053;-60
2023/03/02 05:23:36;;;;;;;38.67;20.08;;;;;;;;;;5054044;28;20056;-60
2023/03/02 05:26:04;;;;;;;41.28;19.80;;;;;;;;;;5054709;28;20474;-59
2023/03/02 05:28:30;;;;;;;40.08;20.35;;;;;;;;;;5054560;28;20076;-59
2023/03/02 05:30:57;;;;;;;41.42;20.17;;;;;;;;;;5053665;28;20102;-56
2023/03/02 05:33:24;;;;;;;40.55;20.05;;;;;;;;;;5053370;28;20123;-59
2023/03/02 05:35:52;;;;;;;42.83;19.38;;;;;;;;;;5034381;28;20099;-59
2023/03/02 05:38:19;;;;;;;42.53;19.75;;;;;;;;;;5033676;28;20049;-59
2023/03/02 05:40:48;;;;;;;39.67;19.58;;;;;;;;;;5033914;28;20061;-60
2023/03/02 05:43:17;;;;;;;38.28;20.15;;;;;;;;;;5037302;28;20044;-58
2023/03/02 05:45:44;;;;;;;36.38;18.83;;;;;;;;;;5053084;28;20060;-57
2023/03/02 05:48:12;;;;;;;39.38;19.25;;;;;;;;;;5053935;28;20045;-60
2023/03/02 05:50:39;;;;;;;40.38;19.13;;;;;;;;;;5053412;28;20049;-59
2023/03/02 05:53:08;;;;;;;39.35;20.60;;;;;;;;;;5053676;28;20080;-59
2023/03/02 05:55:36;;;;;;;40.25;18.85;;;;;;;;;;5053265;28;20053;-60
2023/03/02 05:58:03;;;;;;;40.15;20.48;;;;;;;;;;5053949;28;20056;-60
2023/03/02 06:00:30;;;;;;;42.75;21.48;;;;;;;;;;5053417;28;20068;-59
2023/03/02 06:02:57;;;;;;;43.13;20.58;;;;;;;;;;5053231;28;20045;-56
2023/03/02 06:05:24;;;;;;;42.88;20.88;;;;;;;;;;5053076;28;20049;-56
2023/03/02 06:07:51;;;;;;;43.83;20.58;;;;;;;;;;5052739;28;20057;-59
2023/03/02 06:10:19;;;;;;;42.00;19.70;;;;;;;;;;5053233;28;20048;-59
2023/03/02 06:12:46;;;;;;;42.05;20.83;;;;;;;;;;5053245;28;20049;-59
2023/03/02 06:15:13;;;;;;;42.40;19.40;;;;;;;;;;5053062;28;20049;-59
2023/03/02 06:17:40;;;;;;;44.95;21.90;;;;;;;;;;5053232;28;20074;-59
2023/03/02 06:20:09;;;;;;;45.38;21.77;;;;;;;;;;5053207;28;20482;-59
2023/03/02 06:22:39;;;;;;;42.25;20.77;;;;;;;;;;5053413;28;20062;-58
2023/03/02 06:25:07;;;;;;;42.03;20.45;;;;;;;;;;5052831;28;20048;-59
2023/03/02 06:27:36;;;;;;;40.53;20.42;;;;;;;;;;5053069;28;20131;-58
2023/03/02 06:30:03;;;;;;;39.63;20.13;;;;;;;;;;5052796;28;20056;-59
2023/03/02 06:32:33;;;;;;;43.88;20.75;;;;;;;;;;5053075;28;20099;-58
2023/03/02 06:34:59;;;;;;;42.67;19.25;;;;;;;;;;5052478;28;20547;-58
2023/03/02 06:37:27;;;;;;;39.47;19.10;;;;;;;;;;5052138;28;20046;-58
2023/03/02 06:39:54;;;;;;;48.50;21.08;;;;;;;;;;5052592;28;20103;-59
2023/03/02 06:42:21;;;;;;;46.42;21.38;;;;;;;;;;5052668;28;20513;-59
2023/03/02 06:44:50;;;;;;;46.30;22.83;;;;;;;;;;5052668;28;20508;-59
2023/03/02 06:47:17;;;;;;;46.97;22.20;;;;;;;;;;5052882;28;20057;-60
2023/03/02 06:49:44;;;;;;;42.67;20.85;;;;;;;;;;5052143;28;20053;-58
2023/03/02 06:52:12;;;;;;;47.03;23.25;;;;;;;;;;5052588;28;20045;-59
2023/03/02 06:54:39;;;;;;;46.13;22.13;;;;;;;;;;5052255;28;20057;-56
2023/03/02 06:57:06;;;;;;;43.53;21.23;;;;;;;;;;5052581;28;20052;-58
2023/03/02 06:59:33;;;;;;;43.75;20.08;;;;;;;;;;5051754;28;20057;-59
2023/03/02 07:02:01;;;;;;;39.90;19.05;;;;;;;;;;5052256;28;20049;-60
2023/03/02 07:04:28;;;;;;;41.13;19.75;;;;;;;;;;5052096;28;20053;-60
2023/03/02 07:06:55;;;;;;;39.25;20.33;;;;;;;;;;5052032;28;20056;-57
2023/03/02 07:09:22;;;;;;;42.90;21.45;;;;;;;;;;5051288;28;20053;-60
2023/03/02 07:11:49;;;;;;;44.40;20.75;;;;;;;;;;5052028;28;20131;-60
2023/03/02 07:14:16;;;;;;;41.63;19.27;;;;;;;;;;5051979;28;20057;-57
2023/03/02 07:16:43;;;;;;;49.72;22.20;;;;;;;;;;5052003;28;20053;-59
2023/03/02 07:19:12;;;;;;;43.25;20.17;;;;;;;;;;5050931;28;20134;-59
2023/03/02 07:21:39;;;;;;;41.63;20.77;;;;;;;;;;5051471;28;20536;-59
2023/03/02 07:24:07;;;;;;;43.85;20.33;;;;;;;;;;5052241;28;20107;-59
2023/03/02 07:26:33;;;;;;;45.28;21.70;;;;;;;;;;5052064;28;20057;-59
2023/03/02 07:29:04;;;;;;;44.85;19.65;;;;;;;;;;5050068;28;20049;-59
2023/03/02 07:31:31;;;;;;;43.70;21.40;;;;;;;;;;5051693;28;20052;-59
2023/03/02 07:33:58;;;;;;;47.92;20.85;;;;;;;;;;5051114;28;20055;-58
2023/03/02 07:36:26;;;;;;;50.45;21.35;;;;;;;;;;5051556;28;20049;-60
2023/03/02 07:38:53;;;;;;;43.20;20.10;;;;;;;;;;5051122;28;20098;-59
2023/03/02 07:51:46;;;;;;;40.00;18.48;;;;;;;;;;5034872;28;20091;-58
2023/03/02 07:54:12;;;;;;;43.38;19.02;;;;;;;;;;5029186;28;20572;-58
2023/03/02 07:56:39;;;;;;;38.58;18.95;;;;;;;;;;5049175;28;20583;-60
2023/03/02 07:59:06;;;;;;;39.00;19.55;;;;;;;;;;5048982;28;20110;-60
2023/03/02 08:01:33;;;;;;;42.22;17.73;;;;;;;;;;5038984;28;20081;-60
2023/03/02 08:04:00;;;;;;;40.08;19.15;;;;;;;;;;5048307;28;20667;-60
2023/03/02 08:06:27;;;;;;;36.70;17.58;;;;;;;;;;5049457;28;20067;-58
2023/03/02 08:08:55;;;;;;;39.13;17.88;;;;;;;;;;5049343;28;20475;-58
2023/03/02 08:11:21;;;;;;;37.65;18.63;;;;;;;;;;5049452;28;20122;-61
2023/03/02 08:13:48;;;;;;;38.95;19.25;;;;;;;;;;5047637;28;20106;-60
2023/03/02 08:16:16;;;;;;;37.40;18.10;;;;;;;;;;5049228;28;20128;-59
2023/03/02 08:18:44;;;;;;;36.50;17.60;;;;;;;;;;5049383;28;20053;-60
2023/03/02 08:21:15;;;;;;;44.63;20.17;;;;;;;;;;5049534;28;20088;-60
2023/03/02 08:23:42;;;;;;;38.17;18.65;;;;;;;;;;5040304;28;20052;-60
2023/03/02 08:26:11;;;;;;;39.03;18.83;;;;;;;;;;5040068;28;20127;-61
2023/03/02 08:28:39;;;;;;;35.13;18.55;;;;;;;;;;5039852;28;20569;-60
2023/03/02 08:31:07;;;;;;;39.70;18.30;;;;;;;;;;5037852;28;20045;-63
2023/03/02 08:33:35;;;;;;;39.72;18.70;;;;;;;;;;5035628;28;20623;-60
2023/03/02 08:36:04;;;;;;;38.95;18.60;;;;;;;;;;5050160;28;20103;-62
2023/03/02 08:38:32;;;;;;;37.10;17.38;;;;;;;;;;5051772;28;20056;-62
2023/03/02 08:41:02;;;;;;;37.72;17.85;;;;;;;;;;5042889;28;20053;-65
2023/03/02 08:43:30;;;;;;;36.50;17.87;;;;;;;;;;5042973;28;20041;-60
2023/03/02 08:45:57;;;;;;;39.10;18.27;;;;;;;;;;5032658;28;20049;-68
2023/03/02 08:48:25;;;;;;;39.65;18.58;;;;;;;;;;5041955;23;20037;-56
2023/03/02 08:50:56;;;;;;;38.05;18.58;;;;;;;;;;5024114;28;20091;-57
2023/03/02 08:53:23;;;;;;;41.38;18.83;;;;;;;;;;5032358;28;20104;-62
2023/03/02 08:55:50;;;;;;;38.33;19.70;;;;;;;;;;5032561;28;20545;-60
2023/03/02 08:58:17;;;;;;;41.65;19.08;;;;;;;;;;5031929;28;20058;-58
2023/03/02 09:00:46;;;;;;;37.80;18.23;;;;;;;;;;5032012;28;20037;-56
2023/03/02 09:03:12;;;;;;;42.67;18.88;;;;;;;;;;5032654;28;20057;-58
2023/03/02 09:05:39;;;;;;;37.78;18.60;;;;;;;;;;5028941;28;20125;-55
2023/03/02 09:08:07;;;;;;;40.00;19.58;;;;;;;;;;5012443;28;20599;-57
2023/03/02 09:10:34;;;;;;;55.08;19.73;;;;;;;;;;5012712;28;20061;-57
2023/03/02 09:13:00;;;;;;;45.80;20.85;;;;;;;;;;5012482;28;20049;-56
2023/03/02 09:15:27;;;;;;;44.47;19.75;;;;;;;;;;5012376;28;20050;-59
2023/03/02 09:17:55;;;;;;;42.15;18.77;;;;;;;;;;5026614;28;20101;-58
2023/03/02 09:20:23;;;;;;;45.17;18.65;;;;;;;;;;5031821;28;20049;-58
2023/03/02 09:22:49;;;;;;;36.65;17.63;;;;;;;;;;5030336;28;20115;-57
2023/03/02 09:25:18;;;;;;;45.00;19.17;;;;;;;;;;5030971;28;20053;-57
2023/03/02 09:27:45;;;;;;;38.92;18.73;;;;;;;;;;5028906;28;20045;-57
2023/03/02 09:30:14;;;;;;;36.65;16.95;;;;;;;;;;5027684;28;20046;-57
2023/03/02 09:32:41;;;;;;;38.65;17.88;;;;;;;;;;5025955;28;20076;-55
2023/03/02 09:35:10;;;;;;;41.38;19.50;;;;;;;;;;5016449;28;20081;-56
2023/03/02 09:37:37;;;;;;;40.45;18.70;;;;;;;;;;5028082;28;20544;-56
2023/03/02 09:40:12;;;;;;;37.00;18.83;;;;;;;;;;5030773;28;20058;-56
2023/03/02 09:42:59;;;;;;;38.83;18.45;;;;;;;;;;5027138;28;20060;-54
2023/03/02 09:45:37;;;;;;;44.40;20.50;;;;;;;;;;5021193;28;20482;-54
2023/03/02 09:48:15;;;;;;;40.40;19.20;;;;;;;;;;5023232;28;20056;-58
2023/03/02 09:50:55;;;;;;;40.60;18.92;;;;;;;;;;5031348;28;20049;-55
2023/03/02 09:53:35;;;;;;;35.33;17.95;;;;;;;;;;5031204;28;20107;-54
2023/03/02 09:56:02;;;;;;;37.63;18.48;;;;;;;;;;5031468;28;20128;-58
2023/03/02 09:58:35;;;;;;;34.67;18.13;;;;;;;;;;5031452;28;20512;-57
2023/03/02 10:01:06;;;;;;;38.33;19.08;;;;;;;;;;5030740;28;20505;-56
2023/03/02 10:03:38;;;;;;;40.50;18.58;;;;;;;;;;5031236;28;20046;-57
2023/03/02 10:06:06;;;;;;;41.70;18.52;;;;;;;;;;5024291;28;20573;-57
2023/03/02 10:08:36;;;;;;;37.22;18.52;;;;;;;;;;5011311;28;20046;-57
2023/03/02 10:11:11;;;;;;;35.90;16.67;;;;;;;;;;5011438;28;20104;-54
2023/03/02 10:13:45;;;;;;;37.40;18.08;;;;;;;;;;5011953;28;20402;-57
2023/03/02 10:16:21;;;;;;;39.20;18.13;;;;;;;;;;5011048;28;20054;-56
2023/03/02 10:18:57;;;;;;;37.95;17.52;;;;;;;;;;5011005;28;20557;-53
2023/03/02 10:21:31;;;;;;;36.85;17.77;;;;;;;;;;5022742;28;20046;-57
2023/03/02 10:24:04;;;;;;;38.92;18.70;;;;;;;;;;5031526;28;20061;-55
2023/03/02 10:26:39;;;;;;;40.30;18.48;;;;;;;;;;5025027;28;20542;-58
2023/03/02 10:29:34;;;;;;;35.60;16.80;;;;;;;;;;5019701;28;20053;-58
2023/03/02 10:32:10;;;;;;;37.70;17.25;;;;;;;;;;5018762;28;20076;-56
2023/03/02 10:34:38;;;;;;;35.75;17.90;;;;;;;;;;5015923;28;20123;-55
2023/03/02 10:37:13;;;;;;;39.83;17.95;;;;;;;;;;5016359;28;20061;-57
2023/03/02 10:39:40;;;;;;;37.70;18.27;;;;;;;;;;5010587;28;20053;-53
2023/03/02 10:42:14;;;;;;;42.38;18.23;;;;;;;;;;5010678;28;20280;-55
2023/03/02 10:44:45;;;;;;;39.20;18.92;;;;;;;;;;5011101;28;20054;-57
2023/03/02 10:47:21;;;;;;;36.28;17.88;;;;;;;;;;5011257;28;20402;-56
2023/03/02 10:49:48;;;;;;;34.95;18.98;;;;;;;;;;5010914;28;20046;-59
2023/03/02 10:52:18;;;;;;;30.35;16.42;;;;;;;;;;5010364;28;20164;-57
2023/03/02 10:54:46;;;;;;;39.45;18.33;;;;;;;;;;5010603;28;20129;-59
2023/03/02 10:57:30;;;;;;;36.00;18.00;;;;;;;;;;5010657;28;20049;-55
2023/03/02 11:00:01;;;;;;;37.20;18.15;;;;;;;;;;5017374;28;20073;-58
2023/03/02 11:02:29;;;;;;;33.60;16.20;;;;;;;;;;5027987;28;20057;-57
2023/03/02 11:04:57;;;;;;;34.85;17.50;;;;;;;;;;5022180;28;20041;-57
2023/03/02 11:07:27;;;;;;;36.47;17.40;;;;;;;;;;5013386;28;20053;-55
2023/03/02 11:09:59;;;;;;;37.47;16.53;;;;;;;;;;5010779;28;20046;-54
2023/03/02 11:12:26;;;;;;;30.95;16.15;;;;;;;;;;5019760;28;20510;-54
2023/03/02 11:15:02;;;;;;;33.10;16.85;;;;;;;;;;5030300;28;20525;-58
2023/03/02 11:17:32;;;;;;;36.58;17.35;;;;;;;;;;5030423;28;20136;-59
2023/03/02 11:20:02;;;;;;;30.65;16.02;;;;;;;;;;5030074;28;20115;-58
2023/03/02 11:22:38;;;;;;;32.13;16.77;;;;;;;;;;5021998;28;20054;-60
2023/03/02 11:25:08;;;;;;;34.00;16.75;;;;;;;;;;5019278;28;20494;-55
2023/03/02 11:27:39;;;;;;;31.00;16.47;;;;;;;;;;5018476;28;20049;-58
2023/03/02 11:30:14;;;;;;;32.15;15.75;;;;;;;;;;5017261;28;20629;-56
2023/03/02 11:32:50;;;;;;;31.75;16.30;;;;;;;;;;5016343;28;20344;-55
2023/03/02 11:35:29;;;;;;;32.85;16.70;;;;;;;;;;5028691;28;20501;-65
2023/03/02 11:38:02;;;;;;;32.65;16.83;;;;;;;;;;5030469;28;20145;-57
2023/03/02 11:40:32;;;;;;;29.65;16.20;;;;;;;;;;5030398;28;20514;-57
2023/03/02 11:43:03;;;;;;;27.52;14.43;;;;;;;;;;5030434;28;20065;-64
2023/03/02 11:45:32;;;;;;;35.88;16.05;;;;;;;;;;5030384;28;20050;-64
2023/03/02 11:48:03;;;;;;;27.15;14.52;;;;;;;;;;5029039;28;20049;-61
2023/03/02 11:50:33;;;;;;;26.55;14.05;;;;;;;;;;5010053;28;20100;-56
2023/03/02 11:53:06;;;;;;;29.90;15.47;;;;;;;;;;5020060;28;20111;-57
2023/03/02 11:55:47;;;;;;;26.65;13.98;;;;;;;;;;5021223;28;20502;-57
2023/03/02 11:58:19;;;;;;;35.60;16.25;;;;;;;;;;5021016;28;20085;-56
2023/03/02 12:00:48;;;;;;;29.52;15.48;;;;;;;;;;5020958;28;20049;-57
2023/03/02 12:03:35;;;;;;;28.33;14.82;;;;;;;;;;5018238;28;20049;-58
2023/03/02 12:06:05;;;;;;;27.98;14.10;;;;;;;;;;5020855;28;20054;-57
2023/03/02 12:08:38;;;;;;;35.67;13.73;;;;;;;;;;5022697;28;20530;-57
2023/03/02 12:11:07;;;;;;;25.65;14.48;;;;;;;;;;5023484;28;20053;-54
2023/03/02 12:13:36;;;;;;;27.90;14.40;;;;;;;;;;5023890;28;20386;-56
2023/03/02 12:16:04;;;;;;;28.83;13.32;;;;;;;;;;5023698;28;20089;-57
2023/03/02 12:18:43;;;;;;;22.90;11.80;;;;;;;;;;5024568;28;20111;-58
2023/03/02 12:21:13;;;;;;;28.67;12.43;;;;;;;;;;5017574;28;20053;-58
2023/03/02 12:23:57;;;;;;;24.75;12.52;;;;;;;;;;5013402;28;20121;-54
2023/03/02 12:26:31;;;;;;;28.83;12.98;;;;;;;;;;5013863;28;20550;-66
2023/03/02 12:29:02;;;;;;;24.58;12.40;;;;;;;;;;5016754;28;20076;-57
2023/03/02 12:31:41;;;;;;;26.05;12.90;;;;;;;;;;5024012;28;20103;-56
2023/03/02 12:34:26;;;;;;;25.48;12.23;;;;;;;;;;5028219;28;20522;-57
2023/03/02 12:36:56;;;;;;;29.00;13.23;;;;;;;;;;5033519;28;20056;-56
2023/03/02 12:39:40;;;;;;;26.23;13.10;;;;;;;;;;5032726;28;20099;-57
2023/03/02 12:42:34;;;;;;;25.15;12.73;;;;;;;;;;5019055;28;20038;-56
2023/03/02 12:45:12;;;;;;;28.20;14.02;;;;;;;;;;5013491;28;20070;-54
2023/03/02 12:47:42;;;;;;;22.67;12.05;;;;;;;;;;5013407;28;20053;-54
2023/03/02 12:50:18;;;;;;;;;;;;;;;;;;5013735;28;20050;-57
2023/03/02 12:52:45;;;;;;;21.42;11.18;;;;;;;;;;5013573;28;19940;-56
2023/03/02 12:55:19;;;;;;;20.05;11.25;;;;;;;;;;5013085;28;20419;-57
2023/03/02 12:57:50;;;;;;;20.70;11.23;;;;;;;;;;5013254;28;20120;-58
2023/03/02 13:00:20;;;;;;;23.98;12.20;;;;;;;;;;5027993;28;20049;-59
2023/03/02 13:02:48;;;;;;;21.90;12.13;;;;;;;;;;5026242;28;20561;-56
2023/03/02 13:05:19;;;;;;;19.25;10.77;;;;;;;;;;5032675;28;20099;-55
2023/03/02 13:07:55;;;;;;;22.38;10.43;;;;;;;;;;5028085;28;20084;-55
2023/03/02 13:10:29;;;;;;;18.73;10.02;;;;;;;;;;5017461;28;20061;-54
2023/03/02 13:12:57;;;;;;;27.77;12.55;;;;;;;;;;5032229;28;20045;-53
2023/03/02 13:15:24;;;;;;;20.65;11.50;;;;;;;;;;5032612;28;20163;-58
2023/03/02 13:17:55;;;;;;;24.25;11.90;;;;;;;;;;5030941;28;20184;-55
2023/03/02 13:20:24;;;;;;;21.08;11.55;;;;;;;;;;5032344;28;20119;-57
2023/03/02 13:22:51;;;;;;;23.33;11.43;;;;;;;;;;5032298;28;20107;-57
2023/03/02 13:25:25;;;;;;;21.98;12.10;;;;;;;;;;5026202;28;20053;-56
2023/03/02 13:27:53;;;;;;;20.27;10.77;;;;;;;;;;5026288;28;20095;-57
2023/03/02 13:30:26;;;;;;;22.92;11.40;;;;;;;;;;5029088;28;20045;-55
2023/03/02 13:32:58;;;;;;;21.15;12.10;;;;;;;;;;5031466;28;20165;-56
2023/03/02 13:35:27;;;;;;;19.83;12.05;;;;;;;;;;5032406;28;20058;-57
2023/03/02 13:38:01;;;;;;;17.90;10.65;;;;;;;;;;5031540;28;20395;-57
2023/03/02 13:40:40;;;;;;;22.23;12.38;;;;;;;;;;5031960;28;20042;-56
2023/03/02 13:43:34;;;;;;;19.52;11.48;;;;;;;;;;5030949;28;20053;-57
2023/03/02 13:46:03;;;;;;;21.08;11.32;;;;;;;;;;5027887;28;20115;-57
2023/03/02 13:48:30;;;;;;;22.23;11.85;;;;;;;;;;5031703;28;20092;-57
2023/03/02 13:50:59;;;;;;;22.38;11.50;;;;;;;;;;5031092;28;20506;-58
2023/03/02 13:53:28;;;;;;;17.25;10.93;;;;;;;;;;5031455;28;20042;-55
2023/03/02 13:55:59;;;;;;;21.05;11.70;;;;;;;;;;5031652;28;20049;-57
2023/03/02 13:58:28;;;;;;;21.85;12.18;;;;;;;;;;5031385;28;20053;-54
2023/03/02 14:00:55;;;;;;;24.70;11.95;;;;;;;;;;5026477;28;20156;-57
2023/03/02 14:03:25;;;;;;;23.30;11.75;;;;;;;;;;5024993;28;20545;-57
2023/03/02 14:05:52;;;;;;;23.75;12.07;;;;;;;;;;5030866;28;20053;-57
2023/03/02 14:08:19;;;;;;;23.40;12.70;;;;;;;;;;5031401;28;20049;-56
2023/03/02 14:10:46;;;;;;;19.92;11.57;;;;;;;;;;5031270;28;20053;-55
2023/03/02 14:13:17;;;;;;;20.00;11.10;;;;;;;;;;5031586;28;20096;-53
2023/03/02 14:15:48;;;;;;;25.63;13.75;;;;;;;;;;5031332;28;20053;-56
2023/03/02 14:18:24;;;;;;;;;;;;;;;;;;5015506;28;20044;-57
2023/03/02 14:20:51;;;;;;;24.17;12.23;;;;;;;;;;5027320;28;19925;-53
2023/03/02 14:23:18;;;;;;;24.75;12.32;;;;;;;;;;5020652;28;20048;-56
2023/03/02 14:25:45;;;;;;;21.13;12.35;;;;;;;;;;5024459;28;20046;-54
2023/03/02 14:28:18;;;;;;;22.98;12.15;;;;;;;;;;5025464;28;20049;-56
2023/03/02 14:30:45;;;;;;;18.10;10.48;;;;;;;;;;5024711;28;20045;-55
2023/03/02 14:33:16;;;;;;;22.40;11.52;;;;;;;;;;5022414;28;20564;-54
2023/03/02 14:35:43;;;;;;;21.63;13.13;;;;;;;;;;5031107;28;20055;-56
2023/03/02 14:38:13;;;;;;;22.85;12.45;;;;;;;;;;5030929;28;20078;-58
2023/03/02 14:40:40;;;;;;;21.45;12.05;;;;;;;;;;5031333;28;20045;-57
2023/03/02 14:43:06;;;;;;;26.63;14.70;;;;;;;;;;5023083;28;20474;-57